Bingham Farms, Michigan
Current Conditions -  °F | °C
As of 1:15 AM on Wednesday 22 Oct 2014 (Local Time) from KVLL Reporting Station
Overcast Overcast  
Wind Chill: 41°   Ceiling: 2000
Heat Index: 46°   Visibility: 10mi
Dew Point: 38°   Wind: 10mph
Humidity: 74%   Direction: 360°N
Pressure: 30.22"   Gusts: NA
Location:  42.5206°N, 83.2664°W
Report Text: KVLL 220515Z AUTO 36009KT 10SM OVC020 08/03 A3022 RMK AO2 T00760032
Loading
Personal Weather Stations






























Interactive Weather Map
Tropical Storm Tracking
New forecast layout! Learn more

10-Day Weather Forecast

Advertisements
Track Severe Weather on mobile